Lenore, West Virginia
Current Conditions -  °F | °C
As of 6:15 AM on Monday 22 Dec 2014 (Local Time) from KSJS Reporting Station
Overcast Overcast  
Wind Chill: 34°   Ceiling: 4300
Heat Index: 38°   Visibility: 10mi
Dew Point: 33°   Wind: 5mph
Humidity: 83%   Direction: 90°E
Pressure: 30.04"   Gusts: NA
Location:  37.8°N, 82.29°W
Report Text: KSJS 221115Z AUTO 09004KT 10SM OVC043 03/00 A3004 RMK AO2 T00310004
Loading
Personal Weather Stations






























Interactive Weather Map New forecast layout! Learn more

10-Day Weather Forecast

Advertisements
Track Severe Weather on mobile